createdAt,value
2022-12-07T00:02:15.673Z,13.27
2022-12-07T00:07:22.528Z,12.97
2022-12-07T00:12:30.549Z,15.57
2022-12-07T00:17:35.376Z,15.90
2022-12-07T00:22:38.889Z,15.07
2022-12-07T00:27:42.339Z,13.53
2022-12-07T00:32:45.970Z,20.73
2022-12-07T00:37:49.376Z,20.07
2022-12-07T00:42:52.771Z,21.40
2022-12-07T00:47:56.228Z,19.77
2022-12-07T00:52:59.689Z,21.93
2022-12-07T00:58:03.955Z,24.67
2022-12-07T01:03:09.392Z,17.20
2022-12-07T01:08:12.927Z,21.67
2022-12-07T01:13:17.336Z,21.00
2022-12-07T01:18:20.719Z,25.43
2022-12-07T01:23:25.098Z,18.30
2022-12-07T01:28:28.818Z,25.57
2022-12-07T01:33:36.159Z,22.37
2022-12-07T01:38:39.390Z,19.60
2022-12-07T01:44:10.359Z,18.53
2022-12-07T01:49:31.371Z,19.67
2022-12-07T01:54:36.230Z,17.67
2022-12-07T01:59:39.900Z,18.90
2022-12-07T02:04:43.817Z,15.53
2022-12-07T02:09:47.264Z,13.77
2022-12-07T02:20:44.615Z,12.83
2022-12-07T02:26:06.091Z,14.73
2022-12-07T02:31:15.923Z,15.23
2022-12-07T02:36:34.460Z,14.57
2022-12-07T02:41:58.481Z,14.30
2022-12-07T02:47:12.877Z,14.73
2022-12-07T02:58:08.048Z,12.10
2022-12-07T03:03:17.242Z,13.70
2022-12-07T03:08:41.458Z,11.97
2022-12-07T03:19:47.125Z,11.93
2022-12-07T03:24:56.126Z,20.97
2022-12-07T03:30:14.498Z,18.83
2022-12-07T03:35:27.393Z,21.83
2022-12-07T03:46:20.577Z,25.47
2022-12-07T03:51:28.129Z,22.10
2022-12-07T03:56:32.494Z,26.47
2022-12-07T04:01:35.940Z,18.70
2022-12-07T04:06:39.691Z,14.77
2022-12-07T04:11:43.871Z,12.87
2022-12-07T04:16:48.893Z,17.17
2022-12-07T04:21:52.889Z,12.93
2022-12-07T04:26:57.018Z,13.10
2022-12-07T04:32:00.150Z,15.10
2022-12-07T04:37:03.711Z,14.33
2022-12-07T04:42:06.864Z,14.83
2022-12-07T04:47:10.352Z,16.60
2022-12-07T04:52:17.411Z,16.70
2022-12-07T04:57:21.102Z,17.07
2022-12-07T05:02:24.617Z,22.40
2022-12-07T05:07:28.007Z,21.47
2022-12-07T05:23:21.681Z,19.70
2022-12-07T05:28:55.639Z,20.03
2022-12-07T05:33:59.840Z,13.47
2022-12-07T05:44:28.888Z,16.23
2022-12-07T05:49:32.281Z,13.70
2022-12-07T05:54:35.702Z,18.07
2022-12-07T05:59:39.195Z,12.00
2022-12-07T06:04:47.667Z,17.07
2022-12-07T06:09:50.780Z,24.30
2022-12-07T06:14:54.200Z,14.73
2022-12-07T06:19:57.658Z,13.20
2022-12-07T06:25:04.726Z,16.33
2022-12-07T06:30:11.539Z,24.77
2022-12-07T06:35:15.010Z,17.23
2022-12-07T06:40:18.422Z,14.03
2022-12-07T06:45:21.811Z,17.70
2022-12-07T06:50:25.441Z,22.50
2022-12-07T06:55:28.511Z,24.73
2022-12-07T07:00:32.971Z,16.03
2022-12-07T07:05:37.152Z,18.53
2022-12-07T07:10:40.729Z,17.77
2022-12-07T07:15:44.321Z,15.13
2022-12-07T07:20:48.060Z,21.40
2022-12-07T07:25:52.262Z,21.07
2022-12-07T07:30:56.034Z,22.93
2022-12-07T07:35:59.784Z,23.83
2022-12-07T07:41:03.211Z,22.90
2022-12-07T07:46:06.759Z,25.73
2022-12-07T07:51:10.406Z,26.13
2022-12-07T07:56:13.783Z,23.90
2022-12-07T08:01:18.114Z,24.30
2022-12-07T08:06:21.842Z,25.70
2022-12-07T08:11:26.299Z,21.67
2022-12-07T08:16:29.955Z,25.43
2022-12-07T08:21:33.901Z,27.90
2022-12-07T08:26:37.155Z,21.57
2022-12-07T08:31:41.131Z,18.90
2022-12-07T08:36:44.891Z,20.30
2022-12-07T08:41:49.300Z,22.70
2022-12-07T08:46:58.490Z,19.97
2022-12-07T08:52:02.908Z,19.03
2022-12-07T08:57:07.509Z,18.37
2022-12-07T09:02:11.735Z,24.83
2022-12-07T09:07:15.043Z,17.40
2022-12-07T09:12:18.579Z,20.10
2022-12-07T09:17:21.938Z,15.77
2022-12-07T09:22:26.211Z,21.20
2022-12-07T09:27:30.169Z,23.60
2022-12-07T09:32:33.913Z,18.47
2022-12-07T09:37:37.509Z,19.77
2022-12-07T09:42:45.932Z,17.93
2022-12-07T09:47:49.678Z,20.00
2022-12-07T09:52:54.080Z,17.90
2022-12-07T09:57:59.684Z,16.90
2022-12-07T10:03:04.300Z,17.70
2022-12-07T10:08:12.979Z,15.27
2022-12-07T10:13:20.868Z,17.47
2022-12-07T10:18:34.100Z,18.67
2022-12-07T10:23:39.107Z,17.70
2022-12-07T10:28:42.598Z,17.67
2022-12-07T10:33:58.811Z,15.13
2022-12-07T10:39:14.122Z,14.90
2022-12-07T10:44:25.072Z,15.47
2022-12-07T10:49:55.311Z,12.23
2022-12-07T10:55:24.460Z,16.20
2022-12-07T11:00:36.300Z,14.63
2022-12-07T11:05:49.971Z,14.13
2022-12-07T11:11:00.888Z,14.00
2022-12-07T11:16:35.769Z,15.77
2022-12-07T11:21:47.740Z,14.10
2022-12-07T11:27:11.240Z,16.17
2022-12-07T11:32:47.607Z,13.97
2022-12-07T11:37:57.139Z,17.10
2022-12-07T11:43:08.574Z,19.47
2022-12-07T11:48:21.510Z,14.30
2022-12-07T11:53:28.400Z,14.77
2022-12-07T11:58:50.377Z,12.53
2022-12-07T12:04:11.376Z,12.17
2022-12-07T12:14:55.333Z,15.03
2022-12-07T12:20:17.898Z,13.20
2022-12-07T12:25:26.656Z,11.60
2022-12-07T12:30:42.408Z,14.70
2022-12-07T12:35:46.797Z,11.30
2022-12-07T12:40:51.197Z,12.10
2022-12-07T12:46:37.555Z,11.67
2022-12-07T12:51:43.434Z,13.90
2022-12-07T12:57:14.428Z,13.37
2022-12-07T13:02:36.632Z,12.73
2022-12-07T13:07:47.841Z,14.90
2022-12-07T13:13:14.311Z,14.57
2022-12-07T13:18:29.849Z,15.67
2022-12-07T13:23:45.687Z,16.57
2022-12-07T13:29:05.740Z,12.67
2022-12-07T13:34:38.159Z,13.80
2022-12-07T13:39:51.140Z,15.43
2022-12-07T13:44:55.601Z,15.97
2022-12-07T13:49:59.358Z,15.37
2022-12-07T13:55:07.943Z,20.20
2022-12-07T14:00:20.337Z,17.53
2022-12-07T14:05:31.341Z,12.63
2022-12-07T14:10:52.379Z,14.97
2022-12-07T14:15:57.625Z,10.53
2022-12-07T14:21:07.209Z,13.63
2022-12-07T14:26:21.526Z,14.73
2022-12-07T14:31:30.892Z,11.83
2022-12-07T14:36:34.565Z,12.97
2022-12-07T14:41:52.658Z,15.57
2022-12-07T14:57:47.363Z,14.07
2022-12-07T15:02:51.477Z,12.50
2022-12-07T15:07:55.332Z,15.47
2022-12-07T15:13:18.400Z,14.30
2022-12-07T15:18:23.790Z,12.50
2022-12-07T15:23:26.866Z,16.57
2022-12-07T15:28:29.834Z,13.77
2022-12-07T15:33:33.015Z,15.00
2022-12-07T15:39:12.016Z,20.77
2022-12-07T15:44:18.750Z,17.20
2022-12-07T15:49:22.088Z,17.07
2022-12-07T15:54:30.209Z,17.13
2022-12-07T15:59:33.411Z,15.13
2022-12-07T16:04:36.939Z,17.70
2022-12-07T16:09:40.100Z,19.83
2022-12-07T16:14:44.001Z,19.50
2022-12-07T16:19:47.278Z,20.80
2022-12-07T16:24:51.080Z,14.73
2022-12-07T16:29:54.352Z,18.83
2022-12-07T16:34:57.487Z,20.50
2022-12-07T16:40:00.622Z,12.03
2022-12-07T16:45:05.268Z,19.77
2022-12-07T16:50:09.308Z,19.00
2022-12-07T16:55:12.497Z,19.57
2022-12-07T17:00:19.422Z,21.63
2022-12-07T17:05:23.318Z,17.13
2022-12-07T17:10:27.450Z,14.50
2022-12-07T17:15:31.001Z,15.13
2022-12-07T17:20:35.010Z,15.70
2022-12-07T17:25:38.569Z,14.73
2022-12-07T17:30:42.689Z,18.73
2022-12-07T17:35:46.730Z,13.13
2022-12-07T17:40:51.076Z,16.73
2022-12-07T17:45:54.742Z,16.43
2022-12-07T17:51:21.146Z,19.50
2022-12-07T17:56:29.408Z,17.33
2022-12-07T18:01:38.134Z,13.23
2022-12-07T18:06:45.193Z,9.13
2022-12-07T18:11:53.102Z,11.10
2022-12-07T18:16:59.573Z,13.70
2022-12-07T18:22:05.142Z,12.13
2022-12-07T18:27:13.576Z,13.67
2022-12-07T18:32:17.464Z,9.37
2022-12-07T18:37:29.151Z,12.70
2022-12-07T18:42:36.300Z,8.23
2022-12-07T18:47:41.362Z,5.67
2022-12-07T18:52:45.938Z,7.27
2022-12-07T18:58:00.656Z,6.63
2022-12-07T19:03:06.418Z,6.90
2022-12-07T19:08:11.971Z,9.57
2022-12-07T19:13:16.997Z,8.87
2022-12-07T19:18:21.240Z,9.30
2022-12-07T19:23:27.058Z,7.27
2022-12-07T19:28:32.541Z,8.07
2022-12-07T19:33:37.240Z,7.37
2022-12-07T19:38:41.858Z,7.67
2022-12-07T19:43:47.750Z,9.73
2022-12-07T19:48:53.767Z,7.47
2022-12-07T19:54:00.575Z,6.97
2022-12-07T19:59:07.438Z,8.93
2022-12-07T20:04:17.797Z,8.33
2022-12-07T20:09:24.509Z,6.47
2022-12-07T20:14:31.419Z,6.90
2022-12-07T20:19:40.164Z,8.60
2022-12-07T20:24:45.250Z,8.70
2022-12-07T20:29:52.210Z,10.37
2022-12-07T20:34:57.684Z,10.30
2022-12-07T20:40:03.507Z,11.53
2022-12-07T20:45:12.669Z,8.00
2022-12-07T20:50:17.336Z,9.07
2022-12-07T20:55:21.869Z,8.83
2022-12-07T21:00:26.271Z,9.27
2022-12-07T21:05:30.871Z,7.73
2022-12-07T21:10:34.428Z,5.13
2022-12-07T21:15:41.843Z,9.80
2022-12-07T21:20:45.100Z,8.87
2022-12-07T21:25:48.975Z,11.30
2022-12-07T21:31:15.317Z,5.97
2022-12-07T21:36:23.692Z,4.60
2022-12-07T21:41:29.392Z,7.23
2022-12-07T21:46:34.748Z,13.57
2022-12-07T21:51:39.640Z,8.77
2022-12-07T21:56:45.611Z,9.80
2022-12-07T22:01:50.392Z,10.23
2022-12-07T22:06:54.249Z,9.03
2022-12-07T22:11:57.438Z,7.60
2022-12-07T22:17:00.728Z,14.20
2022-12-07T22:22:04.359Z,5.73
2022-12-07T22:27:07.918Z,8.37
2022-12-07T22:32:46.042Z,14.70
2022-12-07T22:37:34.691Z,6.77
2022-12-07T22:42:37.854Z,14.00
2022-12-07T22:47:41.480Z,11.00
2022-12-07T22:52:44.651Z,6.30
2022-12-07T22:57:48.211Z,7.33
2022-12-07T23:02:51.752Z,9.80
2022-12-07T23:07:55.090Z,7.63
2022-12-07T23:13:16.730Z,8.00
2022-12-07T23:18:19.893Z,9.63
2022-12-07T23:23:22.982Z,6.53
2022-12-07T23:28:26.371Z,8.83
2022-12-07T23:33:29.810Z,8.00
2022-12-07T23:38:33.282Z,7.57
2022-12-07T23:43:37.738Z,9.27
2022-12-07T23:48:41.520Z,5.93
2022-12-07T23:53:47.409Z,7.50
2022-12-07T23:58:52.250Z,10.40
